Time;durP1;ratioP1;P1;durP2;ratioP2;P2;SDS_P1;SDS_P2;PMS_P1;PMS_P2;Temp;Humidity;BMP_temperature;BMP_pressure;BME280_temperature;BME280_humidity;BME280_pressure;Samples;Min_cycle;Max_cycle;Signal;HPM_P1;HPM_P2
2022/08/02 00:00:50;;;;;;;4.07;3.37;;;20.30;99.50;;;;;;5024148;28;20447;-73
2022/08/02 00:03:36;;;;;;;6.50;4.00;;;20.20;99.40;;;;;;5037726;28;20927;-73
2022/08/02 00:06:23;;;;;;;5.53;3.63;;;20.20;99.30;;;;;;5038282;28;20986;-71
2022/08/02 00:09:09;;;;;;;5.50;3.03;;;20.20;99.10;;;;;;5035506;28;20450;-73
2022/08/02 00:11:54;;;;;;;4.70;3.80;;;20.00;99.60;;;;;;5032600;28;20941;-73
2022/08/02 00:14:40;;;;;;;4.57;3.97;;;19.90;99.90;;;;;;5039368;28;20562;-72
2022/08/02 00:17:26;;;;;;;5.87;4.60;;;19.80;99.90;;;;;;5036424;28;20427;-73
2022/08/02 00:20:13;;;;;;;5.37;4.40;;;19.70;99.90;;;;;;5028843;28;20936;-73
2022/08/02 00:23:00;;;;;;;6.83;4.53;;;19.60;99.90;;;;;;5029248;28;20435;-73
2022/08/02 00:25:46;;;;;;;4.60;4.10;;;19.50;99.90;;;;;;5021711;28;20471;-72
2022/08/02 00:28:32;;;;;;;6.70;3.83;;;19.40;99.90;;;;;;5043267;28;20522;-73
2022/08/02 00:31:17;;;;;;;5.63;3.60;;;19.40;99.90;;;;;;5028272;28;20442;-72
2022/08/02 00:34:03;;;;;;;4.17;3.77;;;19.50;99.90;;;;;;5034144;28;20501;-72
2022/08/02 00:36:49;;;;;;;3.93;3.53;;;19.40;99.90;;;;;;5032637;28;20856;-73
2022/08/02 00:39:36;;;;;;;5.73;4.03;;;19.50;99.90;;;;;;5036808;28;20435;-73
2022/08/02 00:42:21;;;;;;;4.97;3.83;;;19.40;99.90;;;;;;5044139;28;20440;-73
2022/08/02 00:45:08;;;;;;;7.63;4.00;;;19.30;99.90;;;;;;5045746;28;20422;-72
2022/08/02 00:47:54;;;;;;;5.17;4.67;;;19.30;99.90;;;;;;5035904;28;20425;-72
2022/08/02 00:50:40;;;;;;;11.50;4.70;;;19.30;99.90;;;;;;5023112;28;20880;-72
2022/08/02 00:53:26;;;;;;;6.50;4.70;;;19.20;99.90;;;;;;5036803;28;20579;-73
2022/08/02 00:56:13;;;;;;;4.83;4.33;;;19.00;99.90;;;;;;5031986;28;20395;-73
2022/08/02 00:58:58;;;;;;;9.60;4.33;;;19.00;99.90;;;;;;5044768;28;20421;-73
2022/08/02 01:01:44;;;;;;;6.17;4.20;;;19.00;99.90;;;;;;5034364;28;20811;-73
2022/08/02 01:04:30;;;;;;;4.77;4.03;;;19.10;99.90;;;;;;5042969;28;20838;-73
2022/08/02 01:07:16;;;;;;;4.37;3.93;;;19.20;99.90;;;;;;5039320;28;20885;-72
2022/08/02 01:10:01;;;;;;;6.30;5.00;;;19.30;99.90;;;;;;5028540;28;20463;-73
2022/08/02 01:12:48;;;;;;;5.63;3.80;;;19.40;99.90;;;;;;5036894;28;20944;-73
2022/08/02 01:15:38;;;;;;;4.90;4.40;;;19.50;99.90;;;;;;5035888;28;20456;-73
2022/08/02 01:18:28;;;;;;;4.67;4.03;;;19.40;99.90;;;;;;5044543;28;20631;-73
2022/08/02 01:21:30;;;;;;;5.40;4.23;;;19.40;99.90;;;;;;5047332;28;20439;-73
2022/08/02 01:24:35;;;;;;;6.57;4.43;;;19.20;99.90;;;;;;5037640;28;20575;-70
2022/08/02 01:27:33;;;;;;;6.33;4.00;;;19.10;99.90;;;;;;5030469;28;20441;-73
2022/08/02 01:30:21;;;;;;;7.20;4.80;;;19.10;99.90;;;;;;5030935;28;20472;-72
2022/08/02 01:33:08;;;;;;;4.97;4.10;;;19.20;99.90;;;;;;5046907;28;20822;-73
2022/08/02 01:35:58;;;;;;;7.10;4.77;;;19.10;99.90;;;;;;5040840;28;20475;-73
2022/08/02 01:38:49;;;;;;;4.53;4.13;;;19.20;99.90;;;;;;5021556;28;20439;-72
2022/08/02 01:41:35;;;;;;;5.30;4.67;;;19.30;99.90;;;;;;5041716;28;20555;-73
2022/08/02 01:44:24;;;;;;;4.03;3.63;;;19.40;99.90;;;;;;5024718;28;20464;-71
2022/08/02 01:47:17;;;;;;;8.03;4.00;;;19.40;99.90;;;;;;5044704;28;20432;-73
2022/08/02 01:50:05;;;;;;;4.87;4.17;;;19.40;99.90;;;;;;5031769;28;20479;-73
2022/08/02 01:52:56;;;;;;;6.77;4.47;;;19.50;99.90;;;;;;5039750;28;21011;-73
2022/08/02 01:55:45;;;;;;;8.10;4.33;;;19.50;99.90;;;;;;5033259;28;20581;-73
2022/08/02 01:58:34;;;;;;;10.43;4.70;;;19.50;99.90;;;;;;5033022;28;20506;-73
2022/08/02 02:01:22;;;;;;;5.47;4.00;;;19.50;99.90;;;;;;5043084;28;20403;-73
2022/08/02 02:04:11;;;;;;;8.40;5.10;;;19.40;99.90;;;;;;5042768;28;20423;-73
2022/08/02 02:06:58;;;;;;;5.30;4.60;;;19.30;99.90;;;;;;5033596;28;20970;-73
2022/08/02 02:09:45;;;;;;;5.23;4.30;;;19.20;99.90;;;;;;5026400;28;20479;-73
2022/08/02 02:12:34;;;;;;;6.60;4.63;;;19.10;99.90;;;;;;5039503;28;20436;-73
2022/08/02 02:15:21;;;;;;;5.20;4.70;;;19.00;99.90;;;;;;5038515;28;20514;-73
2022/08/02 02:18:09;;;;;;;6.60;4.80;;;19.10;99.90;;;;;;5038630;28;20423;-72
2022/08/02 02:20:58;;;;;;;5.50;4.80;;;19.10;99.90;;;;;;5032923;28;20446;-73
2022/08/02 02:23:44;;;;;;;9.93;4.60;;;19.10;99.90;;;;;;5023977;28;20429;-73
2022/08/02 02:26:32;;;;;;;5.77;4.90;;;19.00;99.90;;;;;;5031239;28;20813;-73
2022/08/02 02:29:20;;;;;;;5.30;4.80;;;18.90;99.90;;;;;;5029813;28;20473;-73
2022/08/02 02:32:07;;;;;;;6.53;5.13;;;18.90;99.90;;;;;;5042054;28;20428;-73
2022/08/02 02:34:54;;;;;;;6.00;5.40;;;18.80;99.90;;;;;;5031019;28;20473;-73
2022/08/02 02:37:43;;;;;;;5.80;5.07;;;18.70;99.90;;;;;;5024180;28;20797;-73
2022/08/02 02:40:31;;;;;;;6.27;5.03;;;18.70;99.90;;;;;;5034811;28;21058;-73
2022/08/02 02:43:18;;;;;;;4.93;4.43;;;18.60;99.90;;;;;;5040107;28;20424;-73
2022/08/02 02:46:06;;;;;;;10.23;5.67;;;18.60;99.90;;;;;;5036380;28;20520;-72
2022/08/02 02:48:52;;;;;;;5.00;4.50;;;18.60;99.90;;;;;;5032795;28;20444;-72
2022/08/02 02:51:40;;;;;;;5.33;4.70;;;18.70;99.90;;;;;;5028534;28;20502;-72
2022/08/02 02:54:28;;;;;;;7.80;5.00;;;18.80;99.90;;;;;;5043443;28;20456;-73
2022/08/02 02:57:14;;;;;;;8.07;5.10;;;18.90;99.90;;;;;;5042277;28;20415;-73
2022/08/02 03:00:00;;;;;;;6.00;4.20;;;19.00;99.90;;;;;;5018116;28;20460;-72
2022/08/02 03:02:47;;;;;;;5.57;4.97;;;19.00;99.90;;;;;;5031443;28;20839;-72
2022/08/02 03:05:33;;;;;;;6.10;4.90;;;18.90;99.90;;;;;;5033642;28;20423;-73
2022/08/02 03:08:19;;;;;;;5.47;4.83;;;18.70;99.90;;;;;;5033876;28;20523;-70
2022/08/02 03:11:08;;;;;;;6.90;4.90;;;18.60;99.90;;;;;;5026862;28;20518;-72
2022/08/02 03:13:54;;;;;;;6.57;5.27;;;18.60;99.90;;;;;;5033114;28;20786;-73
2022/08/02 03:16:44;;;;;;;5.13;4.63;;;18.60;99.90;;;;;;5042295;28;20473;-73
2022/08/02 03:19:30;;;;;;;6.03;4.17;;;18.70;99.90;;;;;;5037728;28;20558;-73
2022/08/02 03:22:15;;;;;;;5.90;5.30;;;18.70;99.90;;;;;;5033929;28;20428;-73
2022/08/02 03:25:01;;;;;;;6.47;4.70;;;18.70;99.90;;;;;;5038919;28;20475;-72
2022/08/02 03:27:48;;;;;;;4.90;4.40;;;18.70;99.90;;;;;;5030036;28;20443;-72
2022/08/02 03:30:34;;;;;;;5.60;5.07;;;18.70;99.90;;;;;;5037440;28;20496;-73
2022/08/02 03:33:20;;;;;;;5.63;4.80;;;18.80;99.90;;;;;;5032939;28;20599;-73
2022/08/02 03:36:11;;;;;;;5.10;4.60;;;18.80;99.90;;;;;;5036934;28;20445;-73
2022/08/02 03:38:57;;;;;;;4.87;4.37;;;18.90;99.90;;;;;;5019127;28;20994;-72
2022/08/02 03:41:43;;;;;;;5.10;4.60;;;18.90;99.90;;;;;;5026392;28;20444;-73
2022/08/02 03:44:32;;;;;;;5.67;5.07;;;18.80;99.90;;;;;;5039731;28;20613;-73
2022/08/02 03:47:19;;;;;;;5.80;5.27;;;18.80;99.90;;;;;;5034293;28;20513;-70
2022/08/02 03:50:07;;;;;;;6.43;4.87;;;18.70;99.90;;;;;;5028851;28;20586;-73
2022/08/02 03:52:54;;;;;;;10.30;5.20;;;18.50;99.90;;;;;;5037714;28;20566;-73
2022/08/02 03:55:40;;;;;;;6.27;5.60;;;18.40;99.90;;;;;;5030383;28;20448;-73
2022/08/02 03:58:25;;;;;;;7.07;5.13;;;18.30;99.90;;;;;;5036358;28;20999;-73
2022/08/02 04:01:13;;;;;;;11.73;5.00;;;18.20;99.90;;;;;;5034284;28;21000;-72
2022/08/02 04:03:59;;;;;;;5.23;4.73;;;18.20;99.90;;;;;;5032012;28;20416;-73
2022/08/02 04:06:44;;;;;;;13.00;4.60;;;18.10;99.90;;;;;;5029350;28;20506;-71
2022/08/02 04:09:30;;;;;;;12.23;5.60;;;17.90;99.90;;;;;;5031325;28;20443;-72
2022/08/02 04:12:16;;;;;;;5.93;4.57;;;18.00;99.90;;;;;;5034421;28;20402;-72
2022/08/02 04:15:04;;;;;;;5.83;5.10;;;18.10;99.90;;;;;;5040879;28;21043;-73
2022/08/02 04:17:56;;;;;;;5.90;4.93;;;18.20;99.90;;;;;;5034246;28;20815;-71
2022/08/02 04:20:43;;;;;;;5.67;5.10;;;18.30;99.90;;;;;;5040140;28;20417;-73
2022/08/02 04:23:31;;;;;;;5.50;4.80;;;18.40;99.90;;;;;;5034146;28;20487;-73
2022/08/02 04:26:17;;;;;;;8.20;5.13;;;18.50;99.90;;;;;;5044332;28;20427;-73
2022/08/02 04:29:05;;;;;;;7.30;5.80;;;18.50;99.90;;;;;;5025006;28;20468;-72
2022/08/02 04:31:51;;;;;;;6.77;5.67;;;18.60;99.90;;;;;;5034655;28;20405;-71
2022/08/02 04:34:38;;;;;;;5.70;4.97;;;18.70;99.90;;;;;;5038859;28;20455;-71
2022/08/02 04:37:24;;;;;;;6.80;5.47;;;18.70;99.90;;;;;;5038889;28;20583;-71
2022/08/02 04:40:11;;;;;;;5.00;4.50;;;18.80;99.90;;;;;;5039470;28;20398;-72
2022/08/02 04:42:56;;;;;;;6.40;5.00;;;18.80;99.90;;;;;;5037147;28;20419;-71
2022/08/02 04:45:43;;;;;;;5.33;4.83;;;18.80;99.90;;;;;;5028339;28;20517;-72
2022/08/02 04:48:29;;;;;;;5.90;4.80;;;18.80;99.90;;;;;;5027314;28;20962;-71
2022/08/02 04:51:15;;;;;;;7.07;5.27;;;18.80;99.90;;;;;;5038043;28;20482;-71
2022/08/02 04:54:01;;;;;;;4.83;3.87;;;18.60;99.90;;;;;;5031489;28;20496;-71
2022/08/02 04:56:47;;;;;;;8.80;5.30;;;18.60;99.90;;;;;;5033124;28;20433;-72
2022/08/02 04:59:32;;;;;;;15.77;5.50;;;18.50;99.90;;;;;;5027426;28;20438;-71
2022/08/02 05:02:18;;;;;;;7.83;5.30;;;18.40;99.90;;;;;;5025654;28;20459;-71
2022/08/02 05:05:04;;;;;;;8.73;5.37;;;18.50;99.90;;;;;;5042432;28;20455;-71
2022/08/02 05:07:51;;;;;;;7.63;5.10;;;18.40;99.90;;;;;;5034073;28;20451;-71
2022/08/02 05:10:36;;;;;;;6.97;5.53;;;18.60;99.90;;;;;;5041350;28;20459;-71
2022/08/02 05:13:22;;;;;;;5.80;5.30;;;18.60;99.90;;;;;;5036873;28;20911;-72
2022/08/02 05:16:08;;;;;;;5.13;4.50;;;18.70;99.90;;;;;;5043556;28;20395;-71
2022/08/02 05:18:53;;;;;;;7.23;4.67;;;18.80;99.90;;;;;;5039449;28;20533;-72
2022/08/02 05:21:39;;;;;;;4.67;4.27;;;18.90;99.90;;;;;;5033187;28;20824;-71
2022/08/02 05:24:26;;;;;;;6.00;4.87;;;18.90;99.90;;;;;;5034380;28;20535;-71
2022/08/02 05:27:11;;;;;;;5.70;5.10;;;19.10;99.90;;;;;;5037141;28;20894;-71
2022/08/02 05:29:57;;;;;;;5.50;4.90;;;19.00;99.90;;;;;;5039512;28;20446;-72
2022/08/02 05:32:44;;;;;;;5.20;4.70;;;19.20;99.90;;;;;;5037152;28;20398;-71
2022/08/02 05:35:30;;;;;;;5.00;4.50;;;19.30;99.90;;;;;;5035953;28;20465;-71
2022/08/02 05:38:15;;;;;;;6.73;5.20;;;19.40;99.90;;;;;;5037105;28;20456;-71
2022/08/02 05:41:02;;;;;;;6.97;4.80;;;19.60;99.90;;;;;;5038271;28;20514;-72
2022/08/02 05:43:48;;;;;;;5.57;4.40;;;19.60;99.90;;;;;;5037492;28;20439;-72
2022/08/02 05:46:33;;;;;;;5.37;4.87;;;19.70;99.90;;;;;;5029722;28;20461;-71
2022/08/02 05:49:19;;;;;;;5.27;4.77;;;19.70;99.90;;;;;;5039591;28;20440;-71
2022/08/02 05:52:13;;;;;;;9.50;5.30;;;19.70;99.90;;;;;;5041985;28;20439;-71
2022/08/02 05:55:06;;;;;;;5.43;4.93;;;19.80;99.90;;;;;;5029699;28;20971;-71
2022/08/02 05:58:02;;;;;;;5.47;4.87;;;20.00;99.90;;;;;;5020979;28;20456;-71
2022/08/02 06:00:50;;;;;;;7.03;5.30;;;20.10;99.90;;;;;;5030973;28;20398;-71
2022/08/02 06:03:39;;;;;;;6.27;5.67;;;20.10;99.90;;;;;;5037820;28;20574;-71
2022/08/02 06:06:26;;;;;;;5.77;5.20;;;20.20;99.90;;;;;;5029480;28;21256;-71
2022/08/02 06:09:16;;;;;;;5.77;5.17;;;20.30;99.90;;;;;;5030903;28;20507;-72
2022/08/02 06:12:05;;;;;;;5.27;4.77;;;20.30;99.90;;;;;;5033636;28;21013;-71
2022/08/02 06:14:54;;;;;;;5.80;5.20;;;20.40;99.90;;;;;;5033521;28;20510;-72
2022/08/02 06:17:40;;;;;;;6.23;4.90;;;20.50;99.90;;;;;;5033605;28;20452;-72
2022/08/02 06:20:27;;;;;;;5.17;4.67;;;20.50;99.90;;;;;;5032317;28;20439;-71
2022/08/02 06:23:13;;;;;;;8.03;5.10;;;20.70;99.90;;;;;;5032371;28;20447;-72
2022/08/02 06:26:00;;;;;;;8.60;3.97;;;20.80;99.90;;;;;;5028917;28;20436;-71
2022/08/02 06:28:47;;;;;;;10.37;4.73;;;21.00;99.90;;;;;;5027549;28;20468;-72
2022/08/02 06:31:35;;;;;;;5.00;4.23;;;21.20;99.90;;;;;;5042372;28;20483;-72
2022/08/02 06:34:21;;;;;;;5.90;3.70;;;21.30;99.90;;;;;;5036550;28;20533;-71
2022/08/02 06:37:14;;;;;;;5.33;4.83;;;21.40;99.90;;;;;;5022468;28;21178;-71
2022/08/02 06:40:06;;;;;;;5.13;4.50;;;21.60;99.90;;;;;;5035708;28;20938;-71
2022/08/02 06:43:02;;;;;;;5.73;4.40;;;21.70;99.90;;;;;;5029060;28;20481;-72
2022/08/02 06:45:47;;;;;;;5.20;4.10;;;21.80;99.90;;;;;;5028447;28;20901;-72
2022/08/02 06:48:35;;;;;;;4.37;3.97;;;21.90;99.90;;;;;;5043243;28;20416;-72
2022/08/02 06:51:21;;;;;;;4.30;3.50;;;22.00;99.90;;;;;;5045449;28;20460;-71
2022/08/02 06:54:07;;;;;;;5.37;4.40;;;22.10;99.90;;;;;;5032337;28;20786;-72
2022/08/02 06:56:53;;;;;;;7.60;3.17;;;22.10;99.90;;;;;;5027470;28;20447;-72
2022/08/02 06:59:38;;;;;;;4.00;3.50;;;22.20;99.90;;;;;;5038037;28;20390;-72
2022/08/02 07:02:24;;;;;;;3.97;3.53;;;22.20;99.90;;;;;;5032821;28;20428;-72
2022/08/02 07:05:11;;;;;;;5.83;4.07;;;22.20;99.90;;;;;;5039571;28;20574;-72
2022/08/02 07:07:57;;;;;;;4.17;3.70;;;22.20;99.90;;;;;;5034808;28;20559;-72
2022/08/02 07:10:43;;;;;;;5.80;2.97;;;22.20;99.90;;;;;;5023778;28;20494;-72
2022/08/02 07:13:29;;;;;;;5.60;3.30;;;22.30;99.90;;;;;;5042519;28;20436;-71
2022/08/02 07:16:15;;;;;;;3.83;2.83;;;22.20;99.90;;;;;;5031236;28;20965;-72
2022/08/02 07:19:00;;;;;;;3.90;3.27;;;22.30;99.90;;;;;;5029183;28;21205;-72
2022/08/02 07:21:47;;;;;;;4.80;3.30;;;22.40;99.90;;;;;;5028148;28;20443;-72
2022/08/02 07:24:33;;;;;;;3.30;2.60;;;22.50;99.90;;;;;;5035485;28;20443;-71
2022/08/02 07:27:19;;;;;;;3.30;2.50;;;22.60;99.60;;;;;;5034157;28;20791;-72
2022/08/02 07:30:06;;;;;;;4.40;2.80;;;22.80;99.90;;;;;;5041146;28;20427;-72
2022/08/02 07:32:52;;;;;;;4.00;2.97;;;22.90;97.40;;;;;;5036382;28;20505;-72
2022/08/02 07:35:38;;;;;;;5.03;2.93;;;23.00;96.00;;;;;;5024499;28;20491;-71
2022/08/02 07:38:25;;;;;;;5.80;3.27;;;23.10;95.00;;;;;;5025462;28;20425;-71
2022/08/02 07:41:11;;;;;;;10.50;3.10;;;23.20;92.90;;;;;;5040079;28;20466;-72
2022/08/02 07:43:57;;;;;;;4.20;2.30;;;23.20;89.20;;;;;;5031900;28;20423;-72
2022/08/02 07:46:43;;;;;;;7.33;2.30;;;23.30;88.90;;;;;;5023353;28;20541;-72
2022/08/02 07:49:30;;;;;;;8.37;2.90;;;23.30;80.70;;;;;;5038441;28;20444;-72
2022/08/02 07:52:16;;;;;;;3.10;1.97;;;23.40;75.80;;;;;;5041732;28;20559;-72
2022/08/02 07:55:03;;;;;;;2.67;1.50;;;23.50;67.80;;;;;;5032652;28;20598;-72
2022/08/02 07:57:49;;;;;;;3.77;1.60;;;23.60;60.90;;;;;;5033737;28;20419;-72
2022/08/02 08:00:34;;;;;;;2.70;1.40;;;23.70;53.50;;;;;;5040877;28;20572;-71
2022/08/02 08:03:20;;;;;;;3.83;1.73;;;23.80;55.00;;;;;;5026709;28;20449;-72
2022/08/02 08:06:06;;;;;;;3.30;1.50;;;24.00;54.30;;;;;;5041403;28;20447;-72
2022/08/02 08:08:52;;;;;;;2.50;1.40;;;24.00;52.20;;;;;;5040355;28;20447;-72
2022/08/02 08:11:39;;;;;;;2.30;1.30;;;24.20;49.90;;;;;;5038741;28;20972;-72
2022/08/02 08:14:25;;;;;;;2.40;1.73;;;24.30;48.40;;;;;;5040181;28;20454;-72
2022/08/02 08:17:10;;;;;;;2.70;1.50;;;24.30;51.10;;;;;;5047605;28;20424;-72
2022/08/02 08:19:56;;;;;;;2.13;1.30;;;24.40;42.10;;;;;;5034959;28;20961;-72
2022/08/02 08:22:42;;;;;;;2.20;1.40;;;24.40;44.30;;;;;;5031961;28;20447;-72
2022/08/02 08:25:27;;;;;;;7.50;1.60;;;24.50;42.70;;;;;;5027610;28;20789;-71
2022/08/02 08:28:14;;;;;;;3.60;1.47;;;24.60;42.10;;;;;;5037468;28;20424;-72
2022/08/02 08:31:00;;;;;;;2.70;1.50;;;24.70;43.30;;;;;;5040639;28;20467;-72
2022/08/02 08:33:46;;;;;;;2.10;1.60;;;24.70;39.40;;;;;;5044798;28;20518;-72
2022/08/02 08:36:31;;;;;;;2.93;1.90;;;24.70;41.30;;;;;;5028293;28;20453;-72
2022/08/02 08:39:17;;;;;;;2.73;1.60;;;24.80;40.30;;;;;;5041543;28;20790;-72
2022/08/02 08:42:06;;;;;;;3.00;1.60;;;24.90;40.40;;;;;;5041671;28;20435;-72
2022/08/02 08:44:55;;;;;;;4.83;1.60;;;25.00;41.00;;;;;;5030994;28;20463;-71
2022/08/02 08:47:42;;;;;;;2.80;1.63;;;25.10;38.60;;;;;;5036810;28;20441;-72
2022/08/02 08:50:33;;;;;;;2.27;1.30;;;25.20;41.80;;;;;;5048690;28;20518;-72
2022/08/02 08:53:21;;;;;;;3.30;1.50;;;25.30;41.30;;;;;;5041029;28;20916;-72
2022/08/02 08:56:07;;;;;;;3.00;1.30;;;25.30;37.50;;;;;;5039706;28;20505;-72
2022/08/02 08:58:53;;;;;;;3.33;1.53;;;25.40;38.70;;;;;;5033823;28;20427;-72
2022/08/02 09:01:41;;;;;;;2.87;1.43;;;25.40;39.00;;;;;;5041357;28;20829;-72
2022/08/02 09:04:26;;;;;;;3.30;1.20;;;25.50;39.30;;;;;;5039306;28;20607;-72
2022/08/02 09:07:12;;;;;;;3.07;1.43;;;25.60;34.70;;;;;;5036964;28;20460;-72
2022/08/02 09:09:58;;;;;;;3.07;1.50;;;25.60;35.00;;;;;;5046463;28;20435;-71
2022/08/02 09:12:44;;;;;;;3.73;1.53;;;25.70;35.10;;;;;;5030541;28;20477;-72
2022/08/02 09:15:29;;;;;;;2.40;1.40;;;25.80;35.00;;;;;;5035178;28;20460;-72
2022/08/02 09:18:17;;;;;;;3.00;1.20;;;25.80;32.90;;;;;;5033028;28;20444;-72
2022/08/02 09:21:05;;;;;;;2.67;1.27;;;25.80;31.20;;;;;;5029370;28;20523;-71
2022/08/02 09:23:52;;;;;;;4.33;1.53;;;25.90;31.30;;;;;;5042391;28;20999;-72
2022/08/02 09:26:37;;;;;;;2.30;1.20;;;25.90;31.30;;;;;;5039310;28;20423;-72
2022/08/02 09:29:24;;;;;;;2.93;1.30;;;25.90;31.30;;;;;;5040442;28;20425;-72
2022/08/02 09:32:10;;;;;;;7.23;1.13;;;26.00;31.40;;;;;;5041850;28;20517;-72
2022/08/02 09:34:57;;;;;;;3.20;1.47;;;26.10;31.40;;;;;;5025823;28;20592;-72
2022/08/02 09:37:43;;;;;;;2.10;1.30;;;26.20;30.20;;;;;;5031348;28;20455;-72
2022/08/02 09:40:36;;;;;;;2.63;1.50;;;26.30;30.60;;;;;;5048256;28;21047;-72
2022/08/02 09:43:23;;;;;;;2.00;1.13;;;26.30;30.90;;;;;;5038399;28;20467;-72
2022/08/02 09:46:13;;;;;;;6.13;1.67;;;26.40;32.50;;;;;;5029946;28;20491;-72
2022/08/02 09:49:02;;;;;;;6.93;1.50;;;26.40;31.70;;;;;;5035268;28;20428;-72
2022/08/02 09:51:52;;;;;;;2.93;1.50;;;26.50;31.80;;;;;;5030979;28;20470;-72
2022/08/02 09:54:40;;;;;;;4.57;1.80;;;26.50;31.80;;;;;;5037562;28;20488;-72
2022/08/02 09:57:27;;;;;;;2.70;1.50;;;26.60;31.80;;;;;;5032141;28;20436;-72
2022/08/02 10:00:13;;;;;;;4.17;1.50;;;26.70;31.90;;;;;;5035121;28;20451;-72
2022/08/02 10:03:07;;;;;;;2.23;1.33;;;26.70;31.10;;;;;;5042473;28;20424;-72
2022/08/02 10:05:54;;;;;;;2.10;1.40;;;26.70;29.90;;;;;;5024447;28;20479;-72
2022/08/02 10:08:42;;;;;;;2.13;1.40;;;26.80;31.40;;;;;;5031986;28;20429;-72
2022/08/02 10:11:28;;;;;;;2.50;1.40;;;26.80;29.10;;;;;;5034167;28;20468;-72
2022/08/02 10:14:14;;;;;;;2.50;1.63;;;26.90;31.00;;;;;;5034093;28;20476;-72
2022/08/02 10:17:00;;;;;;;2.23;1.23;;;26.90;30.30;;;;;;5030888;28;20508;-72
2022/08/02 10:19:47;;;;;;;4.60;1.40;;;27.00;29.60;;;;;;5039123;28;20428;-72
2022/08/02 10:22:34;;;;;;;2.90;1.50;;;27.10;29.70;;;;;;5040026;28;20428;-72
2022/08/02 10:25:22;;;;;;;2.27;1.40;;;27.20;30.00;;;;;;5027328;28;20568;-72
2022/08/02 10:28:08;;;;;;;2.53;1.30;;;27.30;29.10;;;;;;5035176;28;20444;-71
2022/08/02 10:30:58;;;;;;;4.57;1.80;;;27.30;28.60;;;;;;5026486;28;20981;-72
2022/08/02 10:33:44;;;;;;;3.10;1.57;;;27.40;28.70;;;;;;5052751;22;20563;-75
2022/08/02 10:36:32;;;;;;;2.20;1.47;;;27.40;27.80;;;;;;5053612;28;20845;-75
2022/08/02 10:39:18;;;;;;;2.67;1.70;;;27.40;30.40;;;;;;5055189;28;20424;-75
2022/08/02 10:42:05;;;;;;;3.13;1.60;;;27.60;29.30;;;;;;5046650;28;20507;-76
2022/08/02 10:45:09;;;;;;;2.03;1.27;;;27.60;30.00;;;;;;5023268;28;20448;-76
2022/08/02 10:48:01;;;;;;;2.40;1.50;;;27.80;30.50;;;;;;5030520;28;20500;-76
2022/08/02 10:50:54;;;;;;;2.90;1.80;;;27.90;30.00;;;;;;5022046;28;21108;-75
2022/08/02 10:53:39;;;;;;;3.80;1.73;;;28.00;27.90;;;;;;5030510;28;20479;-75
2022/08/02 10:56:46;;;;;;;2.57;1.40;;;28.00;28.40;;;;;;5030891;28;20512;-75
2022/08/02 10:59:35;;;;;;;2.30;1.30;;;28.10;28.60;;;;;;5034015;28;20563;-75
2022/08/02 11:02:38;;;;;;;6.00;1.83;;;28.00;27.90;;;;;;5035266;28;20985;-75
2022/08/02 11:05:29;;;;;;;3.83;1.90;;;27.70;28.00;;;;;;5027901;28;20467;-76
2022/08/02 11:08:20;;;;;;;4.50;1.77;;;27.50;28.30;;;;;;5038871;28;20490;-76
2022/08/02 11:11:23;;;;;;;6.80;1.70;;;27.50;29.30;;;;;;5034283;28;20433;-75
2022/08/02 11:14:14;;;;;;;3.30;1.80;;;27.30;30.00;;;;;;5025524;28;20472;-75
2022/08/02 11:17:12;;;;;;;4.17;1.53;;;27.30;29.90;;;;;;5029627;28;20448;-75
2022/08/02 11:20:17;;;;;;;2.40;1.33;;;27.20;29.70;;;;;;5027187;28;20448;-75
2022/08/02 11:23:34;;;;;;;3.50;1.97;;;27.20;29.20;;;;;;5024486;28;20471;-75
2022/08/02 11:26:45;;;;;;;2.23;1.43;;;27.40;32.50;;;;;;5037760;28;20428;-75
2022/08/02 11:29:35;;;;;;;2.50;1.40;;;27.60;30.00;;;;;;5036244;28;20453;-75
2022/08/02 11:32:24;;;;;;;3.50;1.70;;;27.60;29.70;;;;;;5034965;28;20504;-75
2022/08/02 11:35:10;;;;;;;3.67;1.40;;;27.50;30.00;;;;;;5033411;28;20864;-75
2022/08/02 11:37:57;;;;;;;2.63;1.70;;;27.50;30.40;;;;;;5026434;28;20429;-75
2022/08/02 11:40:43;;;;;;;3.90;1.67;;;27.40;30.30;;;;;;5039112;28;20420;-74
2022/08/02 11:43:30;;;;;;;2.10;1.43;;;27.30;30.50;;;;;;5024727;28;20460;-74
2022/08/02 11:46:16;;;;;;;2.23;1.47;;;27.30;29.60;;;;;;5038019;28;20432;-73
2022/08/02 11:49:14;;;;;;;2.03;1.20;;;27.50;29.70;;;;;;5035885;28;20964;-73
2022/08/02 11:52:04;;;;;;;2.67;1.40;;;27.70;28.80;;;;;;5022369;28;21127;-73
2022/08/02 11:54:49;;;;;;;2.50;1.30;;;27.80;28.60;;;;;;5030345;28;20428;-73
2022/08/02 11:57:35;;;;;;;1.87;0.83;;;28.10;27.80;;;;;;5029825;28;20448;-73
2022/08/02 12:00:21;;;;;;;3.50;1.33;;;28.40;26.80;;;;;;5033714;28;20429;-73
2022/08/02 12:03:08;;;;;;;11.07;1.60;;;28.60;27.00;;;;;;5026419;28;20484;-74
2022/08/02 12:05:55;;;;;;;5.60;1.43;;;28.70;25.40;;;;;;5026037;28;20423;-73
2022/08/02 12:08:41;;;;;;;3.17;1.30;;;28.80;24.30;;;;;;5022637;28;20448;-73
2022/08/02 12:11:26;;;;;;;2.90;1.40;;;28.90;25.00;;;;;;5024676;28;20452;-73
2022/08/02 12:14:12;;;;;;;2.00;1.10;;;28.80;24.60;;;;;;5030259;28;20595;-73
2022/08/02 12:20:02;;;;;;;3.90;1.40;;;29.00;23.70;;;;;;5032340;28;20524;-73
2022/08/02 12:22:49;;;;;;;3.40;1.30;;;29.10;24.00;;;;;;5025236;28;20968;-73
2022/08/02 12:25:34;;;;;;;2.77;1.30;;;29.30;24.30;;;;;;5027467;28;20514;-73
2022/08/02 12:28:25;;;;;;;2.60;1.23;;;29.40;22.30;;;;;;5023283;28;20974;-73
2022/08/02 12:31:13;;;;;;;2.83;1.00;;;29.50;24.60;;;;;;5027944;28;20445;-73
2022/08/02 12:33:58;;;;;;;3.13;1.37;;;29.30;22.20;;;;;;5028107;28;20467;-73
2022/08/02 12:36:57;;;;;;;4.30;1.23;;;29.20;23.60;;;;;;5033065;28;20523;-73
2022/08/02 12:39:48;;;;;;;5.30;1.47;;;29.30;24.10;;;;;;5027901;28;20583;-73
2022/08/02 12:42:46;;;;;;;4.07;1.67;;;29.20;22.60;;;;;;5026999;28;20467;-73
2022/08/02 12:45:44;;;;;;;3.87;1.40;;;29.30;23.40;;;;;;5033905;28;20546;-73
2022/08/02 12:48:35;;;;;;;8.03;1.47;;;29.30;23.10;;;;;;5028831;28;20535;-73
2022/08/02 12:51:24;;;;;;;2.87;1.20;;;29.40;21.80;;;;;;5025923;28;20960;-73
2022/08/02 12:54:15;;;;;;;3.03;1.60;;;29.30;21.70;;;;;;5031054;28;20468;-73
2022/08/02 12:57:12;;;;;;;10.17;1.70;;;29.50;21.80;;;;;;5028767;28;21028;-73
2022/08/02 12:59:58;;;;;;;3.33;1.40;;;29.70;23.40;;;;;;5031684;28;20444;-73
2022/08/02 13:02:43;;;;;;;3.10;1.57;;;30.10;23.40;;;;;;5024308;28;20985;-73
2022/08/02 13:05:30;;;;;;;2.60;1.37;;;30.30;22.40;;;;;;5030918;28;20655;-73
2022/08/02 13:08:16;;;;;;;2.47;1.40;;;30.50;21.40;;;;;;5029726;28;20564;-73
2022/08/02 13:11:01;;;;;;;2.30;1.17;;;30.50;20.30;;;;;;5026460;28;20442;-73
2022/08/02 13:13:48;;;;;;;2.60;1.70;;;30.50;22.10;;;;;;5028416;28;20472;-73
2022/08/02 13:16:34;;;;;;;4.23;1.47;;;30.30;22.30;;;;;;5030969;28;20935;-73
2022/08/02 13:19:20;;;;;;;3.13;1.97;;;30.40;22.40;;;;;;5031438;28;20460;-73
2022/08/02 13:22:06;;;;;;;4.67;1.70;;;30.40;22.40;;;;;;5028260;28;20568;-73
2022/08/02 13:24:52;;;;;;;4.10;1.47;;;30.50;22.90;;;;;;5027846;28;20509;-73
2022/08/02 13:27:38;;;;;;;5.63;1.73;;;30.70;22.60;;;;;;5030318;28;20449;-73
2022/08/02 13:30:25;;;;;;;3.00;1.60;;;30.70;21.00;;;;;;5029489;28;20443;-73
2022/08/02 13:33:11;;;;;;;2.87;1.50;;;30.80;20.10;;;;;;5024792;28;20832;-74
2022/08/02 13:35:56;;;;;;;2.40;1.40;;;30.80;20.90;;;;;;5029211;28;20443;-73
2022/08/02 13:38:42;;;;;;;5.57;1.43;;;31.10;21.90;;;;;;5028217;28;20448;-73
2022/08/02 13:41:28;;;;;;;3.73;1.13;;;31.40;20.90;;;;;;5029410;28;20869;-73
2022/08/02 13:44:14;;;;;;;4.40;1.70;;;31.10;18.80;;;;;;5026778;28;20457;-73
2022/08/02 13:47:01;;;;;;;3.00;1.57;;;30.90;19.80;;;;;;5027913;28;20460;-73
2022/08/02 13:49:47;;;;;;;4.13;1.27;;;31.00;19.30;;;;;;5027386;28;20453;-73
2022/08/02 13:52:32;;;;;;;3.93;1.97;;;30.90;19.50;;;;;;5030176;28;20475;-73
2022/08/02 13:55:18;;;;;;;5.90;1.60;;;30.90;19.40;;;;;;5031339;28;20621;-73
2022/08/02 13:58:04;;;;;;;2.40;1.10;;;30.80;20.00;;;;;;5030440;28;20440;-73
2022/08/02 14:00:50;;;;;;;2.80;1.20;;;31.00;22.20;;;;;;5026698;28;20448;-73
2022/08/02 14:03:37;;;;;;;3.07;1.60;;;31.40;20.70;;;;;;5027094;28;20981;-73
2022/08/02 14:06:23;;;;;;;2.83;1.60;;;31.70;18.90;;;;;;5028609;28;20444;-73
2022/08/02 14:09:08;;;;;;;2.90;1.50;;;31.70;18.60;;;;;;5029657;28;20439;-73
2022/08/02 14:14:27;;;;;;;4.10;1.67;;;31.70;19.30;;;;;;5007462;28;20541;-75
2022/08/02 14:17:13;;;;;;;2.70;1.17;;;31.70;18.20;;;;;;5018609;28;20453;-75
2022/08/02 14:20:00;;;;;;;3.23;1.60;;;31.60;17.90;;;;;;5011035;28;20446;-75
2022/08/02 14:22:46;;;;;;;3.40;1.73;;;31.40;18.90;;;;;;4995417;28;20471;-74
2022/08/02 14:25:32;;;;;;;2.90;1.50;;;31.50;19.00;;;;;;5029877;22;20502;-71
2022/08/02 14:28:17;;;;;;;2.90;1.50;;;31.60;19.40;;;;;;5035989;28;20481;-71
2022/08/02 14:31:03;;;;;;;2.40;1.40;;;31.70;18.90;;;;;;5027596;28;20965;-71
2022/08/02 14:33:49;;;;;;;2.73;1.33;;;31.40;18.10;;;;;;5028952;28;20488;-72
2022/08/02 14:36:37;;;;;;;3.07;1.40;;;31.40;18.50;;;;;;5011173;28;20456;-71